Flight Track Log - Related Links

Times and Time Zones

All times are in EDT time to prevent confusion due to time zone crossing. See the UPS1216 flight status page for this flight to view local times or setup timezone preferences in your user account.

Time Position Orientation Groundspeed Altitude Reporting Facility
EDT Latitude Longitude Course Direction KTS km/h feet Rate Location/Type
Thu 04:04:00 42.0071 -88.0778 104° East  Level Estimated
Thu 04:05:00 41.9794 -87.9327 104° East  Level Estimated
Thu 04:06:00 41.9516 -87.7877 104° East  Level Estimated
Thu 04:07:00 41.9236 -87.6428 105° East  Level Estimated
Thu 04:08:00 41.8954 -87.4980 105° East  Level Estimated
Thu 04:09:00 41.8671 -87.3534 105° East  Level Estimated
Thu 04:10:00 41.8385 -87.2089 105° East  Level Estimated
Thu 04:11:00 41.8098 -87.0646 105° East  Level Estimated
Thu 04:11:54 42.0394 -87.2797 105° East 528 978 30,500  Level Indianapolis Center
Thu 04:12:00 41.7809 -86.9203 105° East  Level Estimated
Thu 04:12:54 41.9925 -87.1139 111° Southeast 478 885 32,200  Level Indianapolis Center
Thu 04:13:00 41.7519 -86.7768 105° East  Level Estimated
Thu 04:13:54 41.9456 -86.9425 110° East 483 895 33,900  Level Indianapolis Center
Thu 04:14:00 41.7228 -86.6334 105° East  Level Estimated
Thu 04:14:55 41.8983 -86.7761 111° Southeast 483 895 35,000  Level Indianapolis Center
Thu 04:15:00 41.6935 -86.4902 105° East  Level Estimated
Thu 04:16:00 41.8489 -86.6290 114° Southeast  Level FlightAware Approximate
Thu 04:16:00 41.6640 -86.3471 105° East  Level Estimated
Thu 04:17:00 41.6343 -86.2041 105° East  Level Estimated
Thu 04:22:57 41.5075 -85.4225 112° Southeast 489 906 35,000  Level Cleveland Center
Thu 04:23:00 41.5629 -85.6629 111° Southeast  Level FlightAware Approximate
Thu 04:23:57 41.4561 -85.2522 112° Southeast 489 906 35,000  Level Cleveland Center
Thu 04:24:00 41.5228 -85.5248 111° Southeast  Level FlightAware Approximate
Thu 04:24:57 41.4064 -85.0881 112° Southeast 484 896 35,000  Level Cleveland Center
Thu 04:25:00 41.4824 -85.3868 111° Southeast  Level FlightAware Approximate
Thu 04:25:57 41.3511 -84.9017 112° Southeast 484 896 35,000  Level Cleveland Center
Thu 04:26:00 41.4419 -85.2491 111° Southeast  Level FlightAware Approximate
Thu 04:26:57 41.3006 -84.7406 113° Southeast 484 896 35,000  Level Cleveland Center
Thu 04:27:00 41.4012 -85.1115 111° Southeast  Level FlightAware Approximate
Thu 04:27:57 41.2503 -84.5744 112° Southeast 484 896 35,000  Level Cleveland Center
Thu 04:28:00 41.3604 -84.9741 112° Southeast  Level FlightAware Approximate
Thu 04:28:57 41.2017 -84.4114 112° Southeast 484 896 35,000  Level Cleveland Center
Thu 04:29:57 41.1508 -84.2428 112° Southeast 484 896 35,000  Level Cleveland Center
Thu 04:30:57 41.1017 -84.0828 112° Southeast 484 896 35,000  Level Cleveland Center
Thu 04:31:57 41.0503 -83.9178 112° Southeast 484 896 35,000  Level Cleveland Center
Thu 04:32:57 41.0022 -83.7722 114° Southeast 478 885 35,000  Level Cleveland Center
Thu 04:35:02 40.8931 -83.4219 112° Southeast 473 875 35,000  Level Indianapolis Center
Thu 04:36:03 40.8414 -83.2631 113° Southeast 470 871 35,000  Level Indianapolis Center
Thu 04:37:03 40.7892 -83.1047 113° Southeast 467 864 35,000  Level Indianapolis Center
Thu 04:38:04 40.7397 -82.9453 112° Southeast 468 867 35,000  Level Indianapolis Center
Thu 04:39:04 40.6875 -82.7881 114° Southeast 466 863 35,000  Level Indianapolis Center
Thu 04:40:05 40.6356 -82.6297 113° Southeast 468 867 35,000  Level Indianapolis Center
Thu 04:41:05 40.5836 -82.4725 113° Southeast 467 864 35,000  Level Indianapolis Center
Thu 04:42:06 40.5303 -82.3133 114° Southeast 473 875 35,000  Level Indianapolis Center
Thu 04:43:06 40.4761 -82.1528 114° Southeast 477 884 35,000 -298 Level Indianapolis Center
Thu 04:44:07 40.4231 -81.9947 114° Southeast 473 875 34,400 -984 Descending Indianapolis Center
Thu 04:45:08 40.3694 -81.8364 114° Southeast 474 877 33,000 -694 Descending Indianapolis Center
Thu 04:46:08 40.3150 -81.6758 114° Southeast 478 885 33,000  Level Indianapolis Center
Thu 04:47:09 40.2589 -81.5117 114° Southeast 488 904 33,000  Level Indianapolis Center
Thu 04:48:09 40.2028 -81.3469 114° Southeast 491 909 33,000  Level Indianapolis Center
Thu 04:49:10 40.1467 -81.1844 114° Southeast 489 906 33,000  Level Indianapolis Center
Thu 04:50:11 40.0897 -81.0233 115° Southeast 486 900 33,000  Level Indianapolis Center
Thu 04:51:11 40.0336 -80.8600 114° Southeast 489 906 33,000  Level Indianapolis Center
Thu 04:52:12 39.9933 -80.6928 107° East 480 888 33,000  Level Indianapolis Center
Thu 04:54:16 39.9264 -80.3400 104° East 476 882 33,000  Level Washington Center
Thu 04:55:17 39.8914 -80.1700 105° East 476 882 33,000  Level Washington Center
Thu 04:56:16 39.8558 -80.0028 105° East 482 893 33,000  Level Washington Center
Thu 04:57:19 39.8222 -79.8386 105° East 482 893 33,000  Level Washington Center
Thu 04:58:16 39.7900 -79.6853 105° East 482 893 33,000 -50 Level Washington Center
Thu 04:59:18 39.7558 -79.5214 105° East 482 893 32,900 -1,488 Descending Washington Center
Thu 05:00:17 39.7217 -79.3550 105° East 482 893 30,000 -3,350 Descending Washington Center
Thu 05:01:18 39.6850 -79.1886 106° East 482 893 26,200 -3,126 Descending Washington Center
Thu 05:02:16 39.6503 -79.0225 105° East 477 884 23,800 -2,672 Descending Washington Center
Thu 05:03:17 39.6094 -78.8453 107° East 472 874 20,900 -2,350 Descending Washington Center
Thu 05:04:16 39.5778 -78.6958 105° East 452 837 19,100 -1,835 Descending Washington Center
Thu 05:05:18 39.5439 -78.5519 107° East 430 797 17,200 -1,574 Descending Washington Center
Thu 05:06:18 39.5119 -78.4078 106° East 418 774 15,900 -1,109 Descending Washington Center
Thu 05:07:17 39.4817 -78.2722 106° East 413 764 15,000 -454 Descending Washington Center
Thu 05:08:17 39.4569 -78.1639 106° East 400 740 15,000  Level Washington Center
Thu 05:09:18 39.4225 -78.0147 107° East 395 732 15,000  Level Washington Center
Thu 05:10:19 39.3942 -77.8769 105° East 395 732 15,000 -149 Level Washington Center
Thu 05:11:19 39.3672 -77.7525 106° East 379 702 14,700 -1,077 Descending Washington Center
Thu 05:12:16 39.3461 -77.6447 104° East 341 631 12,900 -2,087 Descending Washington Center
Thu 05:13:14 39.3167 -77.5333 109° East 320 592 10,700 -2,136 Descending Potomac TRACON
Thu 05:14:14 39.3000 -77.4333 102° East 311 576 8,700 -2,000 Descending Potomac TRACON
Thu 05:15:08 39.2833 -77.3333 102° East 300 555 6,900 -1,632 Descending Potomac TRACON
Thu 05:16:08 39.2500 -77.2333 113° Southeast 288 533 5,600 -1,250 Descending Potomac TRACON
Thu 05:17:08 39.2333 -77.1333 102° East 280 518 4,400 -1,150 Descending Potomac TRACON
Thu 05:18:08 39.2167 -77.0333 102° East 268 496 3,300 -850 Descending Potomac TRACON
Thu 05:19:08 39.2000 -76.9500 104° East 228 422 2,700 -400 Descending Potomac TRACON
Thu 05:20:08 39.1833 -76.8833 108° East 194 359 2,500 -250 Descending Potomac TRACON
Thu 05:21:08 39.1833 -76.8167 90° East 172 319 2,200 -500 Descending Potomac TRACON
Thu 05:22:08 39.1833 -76.7667 90° East 134 248 1,500 -700 Descending Potomac TRACON
Thu 05:23:08 39.1833 -76.7167 90° East 129 238 800 -700 Descending Potomac TRACON

Login

Don't have an account? Register now (free) for customized features, flight alerts, and more!